sensor_id;sensor_type;location;lat;lon;timestamp;P1;durP1;ratioP1;P2;durP2;ratioP2
18136;SDS011;9194;42.632;23.298;2023-11-21T00:04:34;0.77;;;0.77;;
18136;SDS011;9194;42.632;23.298;2023-11-21T00:09:36;0.60;;;0.60;;
18136;SDS011;9194;42.632;23.298;2023-11-21T00:14:37;0.60;;;0.60;;
18136;SDS011;9194;42.632;23.298;2023-11-21T00:19:39;0.40;;;0.40;;
18136;SDS011;9194;42.632;23.298;2023-11-21T00:24:40;0.60;;;0.60;;
18136;SDS011;9194;42.632;23.298;2023-11-21T00:29:41;3.53;;;0.93;;
18136;SDS011;9194;42.632;23.298;2023-11-21T00:34:42;0.70;;;0.70;;
18136;SDS011;9194;42.632;23.298;2023-11-21T00:39:44;0.50;;;0.50;;
18136;SDS011;9194;42.632;23.298;2023-11-21T00:44:45;0.53;;;0.53;;
18136;SDS011;9194;42.632;23.298;2023-11-21T00:49:46;0.53;;;0.53;;
18136;SDS011;9194;42.632;23.298;2023-11-21T00:54:47;2.00;;;0.67;;
18136;SDS011;9194;42.632;23.298;2023-11-21T00:59:49;0.63;;;0.63;;
18136;SDS011;9194;42.632;23.298;2023-11-21T01:04:50;0.60;;;0.60;;
18136;SDS011;9194;42.632;23.298;2023-11-21T01:09:52;1.17;;;1.17;;
18136;SDS011;9194;42.632;23.298;2023-11-21T01:14:53;0.50;;;0.50;;
18136;SDS011;9194;42.632;23.298;2023-11-21T01:19:54;0.50;;;0.50;;
18136;SDS011;9194;42.632;23.298;2023-11-21T01:24:57;0.50;;;0.50;;
18136;SDS011;9194;42.632;23.298;2023-11-21T01:29:58;0.40;;;0.40;;
18136;SDS011;9194;42.632;23.298;2023-11-21T01:35:00;0.60;;;0.60;;
18136;SDS011;9194;42.632;23.298;2023-11-21T01:40:01;0.83;;;0.67;;
18136;SDS011;9194;42.632;23.298;2023-11-21T01:45:06;0.60;;;0.60;;
18136;SDS011;9194;42.632;23.298;2023-11-21T01:50:09;0.50;;;0.50;;
18136;SDS011;9194;42.632;23.298;2023-11-21T01:55:16;0.50;;;0.50;;
18136;SDS011;9194;42.632;23.298;2023-11-21T02:00:21;0.40;;;0.40;;
18136;SDS011;9194;42.632;23.298;2023-11-21T02:05:22;0.50;;;0.50;;
18136;SDS011;9194;42.632;23.298;2023-11-21T02:10:23;0.57;;;0.57;;
18136;SDS011;9194;42.632;23.298;2023-11-21T02:15:25;0.40;;;0.40;;
18136;SDS011;9194;42.632;23.298;2023-11-21T02:20:29;0.90;;;0.90;;
18136;SDS011;9194;42.632;23.298;2023-11-21T02:25:31;0.60;;;0.60;;
18136;SDS011;9194;42.632;23.298;2023-11-21T02:30:34;0.50;;;0.50;;
18136;SDS011;9194;42.632;23.298;2023-11-21T02:35:35;0.50;;;0.50;;
18136;SDS011;9194;42.632;23.298;2023-11-21T02:40:36;0.60;;;0.60;;
18136;SDS011;9194;42.632;23.298;2023-11-21T02:45:37;2.07;;;0.87;;
18136;SDS011;9194;42.632;23.298;2023-11-21T02:50:39;0.47;;;0.47;;
18136;SDS011;9194;42.632;23.298;2023-11-21T02:55:40;0.50;;;0.50;;
18136;SDS011;9194;42.632;23.298;2023-11-21T03:00:41;63.77;;;1.27;;
18136;SDS011;9194;42.632;23.298;2023-11-21T03:05:43;0.40;;;0.40;;
18136;SDS011;9194;42.632;23.298;2023-11-21T03:10:44;0.57;;;0.57;;
18136;SDS011;9194;42.632;23.298;2023-11-21T03:15:45;0.60;;;0.60;;
18136;SDS011;9194;42.632;23.298;2023-11-21T03:20:46;0.83;;;0.83;;
18136;SDS011;9194;42.632;23.298;2023-11-21T03:25:48;0.60;;;0.60;;
18136;SDS011;9194;42.632;23.298;2023-11-21T03:30:49;0.70;;;0.70;;
18136;SDS011;9194;42.632;23.298;2023-11-21T03:35:51;0.40;;;0.40;;
18136;SDS011;9194;42.632;23.298;2023-11-21T03:40:54;0.50;;;0.50;;
18136;SDS011;9194;42.632;23.298;2023-11-21T03:45:55;0.80;;;0.80;;
18136;SDS011;9194;42.632;23.298;2023-11-21T03:51:00;1.30;;;0.80;;
18136;SDS011;9194;42.632;23.298;2023-11-21T03:56:02;0.70;;;0.70;;
18136;SDS011;9194;42.632;23.298;2023-11-21T04:01:04;0.50;;;0.50;;
18136;SDS011;9194;42.632;23.298;2023-11-21T04:06:06;0.50;;;0.50;;
18136;SDS011;9194;42.632;23.298;2023-11-21T04:11:07;0.60;;;0.60;;
18136;SDS011;9194;42.632;23.298;2023-11-21T04:16:09;1.00;;;1.00;;
18136;SDS011;9194;42.632;23.298;2023-11-21T04:21:10;0.70;;;0.70;;
18136;SDS011;9194;42.632;23.298;2023-11-21T04:26:11;0.43;;;0.43;;
18136;SDS011;9194;42.632;23.298;2023-11-21T04:31:13;1.17;;;0.77;;
18136;SDS011;9194;42.632;23.298;2023-11-21T04:36:14;0.50;;;0.50;;
18136;SDS011;9194;42.632;23.298;2023-11-21T04:41:15;0.60;;;0.60;;
18136;SDS011;9194;42.632;23.298;2023-11-21T04:46:16;0.90;;;0.90;;
18136;SDS011;9194;42.632;23.298;2023-11-21T04:51:18;0.97;;;0.80;;
18136;SDS011;9194;42.632;23.298;2023-11-21T04:56:19;0.47;;;0.47;;
18136;SDS011;9194;42.632;23.298;2023-11-21T05:01:21;0.50;;;0.50;;
18136;SDS011;9194;42.632;23.298;2023-11-21T05:06:22;3.20;;;0.90;;
18136;SDS011;9194;42.632;23.298;2023-11-21T05:11:27;0.50;;;0.50;;
18136;SDS011;9194;42.632;23.298;2023-11-21T05:16:33;0.50;;;0.50;;
18136;SDS011;9194;42.632;23.298;2023-11-21T05:21:35;0.50;;;0.50;;
18136;SDS011;9194;42.632;23.298;2023-11-21T05:26:36;0.50;;;0.50;;
18136;SDS011;9194;42.632;23.298;2023-11-21T05:31:39;0.50;;;0.50;;
18136;SDS011;9194;42.632;23.298;2023-11-21T05:36:42;0.83;;;0.83;;
18136;SDS011;9194;42.632;23.298;2023-11-21T05:41:46;0.63;;;0.63;;
18136;SDS011;9194;42.632;23.298;2023-11-21T05:46:47;0.60;;;0.60;;
18136;SDS011;9194;42.632;23.298;2023-11-21T05:51:49;0.70;;;0.70;;
18136;SDS011;9194;42.632;23.298;2023-11-21T05:56:50;0.50;;;0.50;;
18136;SDS011;9194;42.632;23.298;2023-11-21T06:01:51;0.60;;;0.60;;
18136;SDS011;9194;42.632;23.298;2023-11-21T06:06:53;1.00;;;1.00;;
18136;SDS011;9194;42.632;23.298;2023-11-21T06:11:54;0.60;;;0.60;;
18136;SDS011;9194;42.632;23.298;2023-11-21T06:16:56;0.60;;;0.60;;
18136;SDS011;9194;42.632;23.298;2023-11-21T06:21:58;0.60;;;0.60;;
18136;SDS011;9194;42.632;23.298;2023-11-21T06:26:59;0.60;;;0.60;;
18136;SDS011;9194;42.632;23.298;2023-11-21T06:32:01;0.50;;;0.50;;
18136;SDS011;9194;42.632;23.298;2023-11-21T06:37:05;0.83;;;0.83;;
18136;SDS011;9194;42.632;23.298;2023-11-21T06:42:07;5.00;;;0.67;;
18136;SDS011;9194;42.632;23.298;2023-11-21T06:47:08;1.47;;;1.30;;
18136;SDS011;9194;42.632;23.298;2023-11-21T06:52:09;1.03;;;1.03;;
18136;SDS011;9194;42.632;23.298;2023-11-21T06:57:11;1.27;;;1.17;;
18136;SDS011;9194;42.632;23.298;2023-11-21T07:02:12;0.87;;;0.83;;
18136;SDS011;9194;42.632;23.298;2023-11-21T07:07:13;1.87;;;1.77;;
18136;SDS011;9194;42.632;23.298;2023-11-21T07:12:14;10.20;;;2.77;;
18136;SDS011;9194;42.632;23.298;2023-11-21T07:17:16;2.13;;;2.03;;
18136;SDS011;9194;42.632;23.298;2023-11-21T07:22:18;0.90;;;0.90;;
18136;SDS011;9194;42.632;23.298;2023-11-21T07:27:22;7.70;;;3.50;;
18136;SDS011;9194;42.632;23.298;2023-11-21T07:32:23;3.90;;;2.67;;
18136;SDS011;9194;42.632;23.298;2023-11-21T07:37:24;1.53;;;1.43;;
18136;SDS011;9194;42.632;23.298;2023-11-21T07:42:29;2.47;;;2.07;;
18136;SDS011;9194;42.632;23.298;2023-11-21T07:47:30;8.83;;;3.40;;
18136;SDS011;9194;42.632;23.298;2023-11-21T07:52:35;2.50;;;2.30;;
18136;SDS011;9194;42.632;23.298;2023-11-21T07:57:36;8.43;;;3.83;;
18136;SDS011;9194;42.632;23.298;2023-11-21T08:02:38;7.47;;;3.27;;
18136;SDS011;9194;42.632;23.298;2023-11-21T08:07:43;11.27;;;4.53;;
18136;SDS011;9194;42.632;23.298;2023-11-21T08:12:45;5.93;;;3.77;;
18136;SDS011;9194;42.632;23.298;2023-11-21T08:17:46;24.30;;;3.67;;
18136;SDS011;9194;42.632;23.298;2023-11-21T08:22:49;6.20;;;4.33;;
18136;SDS011;9194;42.632;23.298;2023-11-21T08:27:50;5.70;;;3.40;;
18136;SDS011;9194;42.632;23.298;2023-11-21T08:32:51;3.03;;;2.20;;
18136;SDS011;9194;42.632;23.298;2023-11-21T08:37:54;6.33;;;3.90;;
18136;SDS011;9194;42.632;23.298;2023-11-21T08:42:56;9.03;;;4.37;;
18136;SDS011;9194;42.632;23.298;2023-11-21T08:48:00;3.70;;;3.47;;
18136;SDS011;9194;42.632;23.298;2023-11-21T08:53:01;4.67;;;3.23;;
18136;SDS011;9194;42.632;23.298;2023-11-21T08:58:02;4.53;;;3.33;;
18136;SDS011;9194;42.632;23.298;2023-11-21T09:03:06;5.33;;;4.67;;
18136;SDS011;9194;42.632;23.298;2023-11-21T09:08:09;6.20;;;4.53;;
18136;SDS011;9194;42.632;23.298;2023-11-21T09:13:10;5.23;;;3.63;;
18136;SDS011;9194;42.632;23.298;2023-11-21T09:18:13;5.53;;;3.67;;
18136;SDS011;9194;42.632;23.298;2023-11-21T09:23:14;5.17;;;4.40;;
18136;SDS011;9194;42.632;23.298;2023-11-21T09:28:16;8.90;;;5.40;;
18136;SDS011;9194;42.632;23.298;2023-11-21T09:33:18;5.37;;;4.87;;
18136;SDS011;9194;42.632;23.298;2023-11-21T09:38:19;4.93;;;4.30;;
18136;SDS011;9194;42.632;23.298;2023-11-21T09:43:21;6.13;;;5.17;;
18136;SDS011;9194;42.632;23.298;2023-11-21T09:48:23;6.60;;;3.87;;
18136;SDS011;9194;42.632;23.298;2023-11-21T09:53:26;4.13;;;3.77;;
18136;SDS011;9194;42.632;23.298;2023-11-21T09:58:32;4.50;;;4.03;;
18136;SDS011;9194;42.632;23.298;2023-11-21T10:03:35;5.20;;;4.27;;
18136;SDS011;9194;42.632;23.298;2023-11-21T10:08:39;7.40;;;3.47;;
18136;SDS011;9194;42.632;23.298;2023-11-21T10:13:42;24.90;;;4.57;;
18136;SDS011;9194;42.632;23.298;2023-11-21T10:18:48;23.83;;;4.47;;
18136;SDS011;9194;42.632;23.298;2023-11-21T10:23:53;10.73;;;3.27;;
18136;SDS011;9194;42.632;23.298;2023-11-21T10:28:58;6.23;;;3.90;;
18136;SDS011;9194;42.632;23.298;2023-11-21T10:34:13;3.83;;;3.57;;
18136;SDS011;9194;42.632;23.298;2023-11-21T10:39:18;4.10;;;3.23;;
18136;SDS011;9194;42.632;23.298;2023-11-21T10:44:24;6.90;;;3.80;;
18136;SDS011;9194;42.632;23.298;2023-11-21T10:49:27;9.97;;;2.83;;
18136;SDS011;9194;42.632;23.298;2023-11-21T10:54:28;4.57;;;2.77;;
18136;SDS011;9194;42.632;23.298;2023-11-21T10:59:30;3.97;;;3.17;;
18136;SDS011;9194;42.632;23.298;2023-11-21T11:04:32;10.80;;;2.87;;
18136;SDS011;9194;42.632;23.298;2023-11-21T11:09:34;7.40;;;3.67;;
18136;SDS011;9194;42.632;23.298;2023-11-21T11:14:36;3.23;;;2.97;;
18136;SDS011;9194;42.632;23.298;2023-11-21T11:19:41;7.40;;;3.83;;
18136;SDS011;9194;42.632;23.298;2023-11-21T11:30:23;2.47;;;2.27;;
18136;SDS011;9194;42.632;23.298;2023-11-21T11:41:02;7.40;;;3.77;;
18136;SDS011;9194;42.632;23.298;2023-11-21T11:46:07;2.40;;;2.23;;
18136;SDS011;9194;42.632;23.298;2023-11-21T11:51:13;9.03;;;3.23;;
18136;SDS011;9194;42.632;23.298;2023-11-21T11:56:22;2.77;;;2.57;;
18136;SDS011;9194;42.632;23.298;2023-11-21T12:01:24;2.37;;;2.27;;
18136;SDS011;9194;42.632;23.298;2023-11-21T12:06:36;14.50;;;3.53;;
18136;SDS011;9194;42.632;23.298;2023-11-21T12:11:37;4.03;;;3.17;;
18136;SDS011;9194;42.632;23.298;2023-11-21T12:16:39;4.67;;;2.53;;
18136;SDS011;9194;42.632;23.298;2023-11-21T12:21:40;9.10;;;4.10;;
18136;SDS011;9194;42.632;23.298;2023-11-21T12:26:42;9.90;;;3.40;;
18136;SDS011;9194;42.632;23.298;2023-11-21T12:31:44;9.27;;;3.53;;
18136;SDS011;9194;42.632;23.298;2023-11-21T12:36:47;3.63;;;3.30;;
18136;SDS011;9194;42.632;23.298;2023-11-21T12:41:50;11.40;;;5.67;;
18136;SDS011;9194;42.632;23.298;2023-11-21T12:46:52;8.57;;;3.33;;
18136;SDS011;9194;42.632;23.298;2023-11-21T12:51:53;9.67;;;4.03;;
18136;SDS011;9194;42.632;23.298;2023-11-21T12:56:58;8.00;;;3.17;;
18136;SDS011;9194;42.632;23.298;2023-11-21T13:02:00;5.60;;;3.03;;
18136;SDS011;9194;42.632;23.298;2023-11-21T13:07:05;4.47;;;3.83;;
18136;SDS011;9194;42.632;23.298;2023-11-21T13:12:15;5.90;;;3.47;;
18136;SDS011;9194;42.632;23.298;2023-11-21T13:17:19;7.20;;;3.57;;
18136;SDS011;9194;42.632;23.298;2023-11-21T13:22:22;8.93;;;3.00;;
18136;SDS011;9194;42.632;23.298;2023-11-21T13:27:25;5.07;;;3.80;;
18136;SDS011;9194;42.632;23.298;2023-11-21T13:32:26;3.77;;;2.93;;
18136;SDS011;9194;42.632;23.298;2023-11-21T13:37:28;7.83;;;4.00;;
18136;SDS011;9194;42.632;23.298;2023-11-21T13:42:31;10.03;;;4.73;;
18136;SDS011;9194;42.632;23.298;2023-11-21T13:47:32;10.07;;;5.63;;
18136;SDS011;9194;42.632;23.298;2023-11-21T13:52:36;2.73;;;2.27;;
18136;SDS011;9194;42.632;23.298;2023-11-21T13:57:38;8.13;;;3.83;;
18136;SDS011;9194;42.632;23.298;2023-11-21T14:02:39;9.90;;;3.07;;
18136;SDS011;9194;42.632;23.298;2023-11-21T14:07:44;9.73;;;5.33;;
18136;SDS011;9194;42.632;23.298;2023-11-21T14:12:48;9.73;;;4.07;;
18136;SDS011;9194;42.632;23.298;2023-11-21T14:17:50;3.93;;;3.63;;
18136;SDS011;9194;42.632;23.298;2023-11-21T14:22:51;5.13;;;4.50;;
18136;SDS011;9194;42.632;23.298;2023-11-21T14:27:52;8.67;;;4.13;;
18136;SDS011;9194;42.632;23.298;2023-11-21T14:32:54;11.17;;;4.67;;
18136;SDS011;9194;42.632;23.298;2023-11-21T14:37:55;7.73;;;3.93;;
18136;SDS011;9194;42.632;23.298;2023-11-21T14:42:56;11.63;;;4.37;;
18136;SDS011;9194;42.632;23.298;2023-11-21T14:47:58;18.10;;;5.00;;
18136;SDS011;9194;42.632;23.298;2023-11-21T14:53:06;6.00;;;3.83;;
18136;SDS011;9194;42.632;23.298;2023-11-21T14:58:08;24.17;;;4.77;;
18136;SDS011;9194;42.632;23.298;2023-11-21T15:03:13;10.83;;;4.77;;
18136;SDS011;9194;42.632;23.298;2023-11-21T15:08:33;11.50;;;4.87;;
18136;SDS011;9194;42.632;23.298;2023-11-21T15:13:37;6.20;;;4.13;;
18136;SDS011;9194;42.632;23.298;2023-11-21T15:18:38;4.60;;;3.23;;
18136;SDS011;9194;42.632;23.298;2023-11-21T15:23:39;2.93;;;2.73;;
18136;SDS011;9194;42.632;23.298;2023-11-21T15:28:42;13.00;;;5.70;;
18136;SDS011;9194;42.632;23.298;2023-11-21T15:33:43;6.30;;;2.37;;
18136;SDS011;9194;42.632;23.298;2023-11-21T15:38:45;1.97;;;1.53;;
18136;SDS011;9194;42.632;23.298;2023-11-21T15:43:46;7.23;;;2.30;;
18136;SDS011;9194;42.632;23.298;2023-11-21T15:48:49;5.67;;;1.47;;
18136;SDS011;9194;42.632;23.298;2023-11-21T15:53:54;15.77;;;1.87;;
18136;SDS011;9194;42.632;23.298;2023-11-21T15:58:56;0.93;;;0.93;;
18136;SDS011;9194;42.632;23.298;2023-11-21T16:03:57;1.03;;;1.03;;
18136;SDS011;9194;42.632;23.298;2023-11-21T16:09:01;0.83;;;0.83;;
18136;SDS011;9194;42.632;23.298;2023-11-21T16:14:03;1.17;;;1.17;;
18136;SDS011;9194;42.632;23.298;2023-11-21T16:19:04;1.10;;;1.00;;
18136;SDS011;9194;42.632;23.298;2023-11-21T16:24:06;11.73;;;2.27;;
18136;SDS011;9194;42.632;23.298;2023-11-21T16:29:07;1.23;;;1.13;;
18136;SDS011;9194;42.632;23.298;2023-11-21T16:34:12;0.47;;;0.47;;
18136;SDS011;9194;42.632;23.298;2023-11-21T16:39:15;0.70;;;0.70;;
18136;SDS011;9194;42.632;23.298;2023-11-21T16:44:20;0.90;;;0.90;;
18136;SDS011;9194;42.632;23.298;2023-11-21T16:49:22;1.20;;;1.10;;
18136;SDS011;9194;42.632;23.298;2023-11-21T16:54:24;0.67;;;0.67;;
18136;SDS011;9194;42.632;23.298;2023-11-21T16:59:25;0.67;;;0.67;;
18136;SDS011;9194;42.632;23.298;2023-11-21T17:04:27;1.03;;;1.03;;
18136;SDS011;9194;42.632;23.298;2023-11-21T17:09:28;3.50;;;1.13;;
18136;SDS011;9194;42.632;23.298;2023-11-21T17:14:29;0.70;;;0.70;;
18136;SDS011;9194;42.632;23.298;2023-11-21T17:19:30;1.00;;;1.00;;
18136;SDS011;9194;42.632;23.298;2023-11-21T17:24:34;3.93;;;1.10;;
18136;SDS011;9194;42.632;23.298;2023-11-21T17:29:37;3.30;;;1.73;;
18136;SDS011;9194;42.632;23.298;2023-11-21T17:34:38;0.90;;;0.90;;
18136;SDS011;9194;42.632;23.298;2023-11-21T17:39:40;0.60;;;0.60;;
18136;SDS011;9194;42.632;23.298;2023-11-21T17:44:41;1.00;;;1.00;;
18136;SDS011;9194;42.632;23.298;2023-11-21T17:49:42;0.63;;;0.63;;
18136;SDS011;9194;42.632;23.298;2023-11-21T17:54:44;1.13;;;1.13;;
18136;SDS011;9194;42.632;23.298;2023-11-21T17:59:45;1.53;;;1.43;;
18136;SDS011;9194;42.632;23.298;2023-11-21T18:04:48;4.43;;;1.07;;
18136;SDS011;9194;42.632;23.298;2023-11-21T18:09:49;1.20;;;1.20;;
18136;SDS011;9194;42.632;23.298;2023-11-21T18:14:50;0.93;;;0.93;;
18136;SDS011;9194;42.632;23.298;2023-11-21T18:19:52;1.23;;;1.23;;
18136;SDS011;9194;42.632;23.298;2023-11-21T18:24:55;3.17;;;2.00;;
18136;SDS011;9194;42.632;23.298;2023-11-21T18:29:57;1.40;;;1.40;;
18136;SDS011;9194;42.632;23.298;2023-11-21T18:35:01;1.00;;;1.00;;
18136;SDS011;9194;42.632;23.298;2023-11-21T18:40:03;1.47;;;1.17;;
18136;SDS011;9194;42.632;23.298;2023-11-21T18:45:06;7.50;;;1.90;;
18136;SDS011;9194;42.632;23.298;2023-11-21T18:50:08;1.80;;;1.70;;
18136;SDS011;9194;42.632;23.298;2023-11-21T18:55:11;1.13;;;1.13;;
18136;SDS011;9194;42.632;23.298;2023-11-21T19:00:13;1.60;;;1.50;;
18136;SDS011;9194;42.632;23.298;2023-11-21T19:05:14;1.33;;;1.20;;
18136;SDS011;9194;42.632;23.298;2023-11-21T19:10:16;1.87;;;1.73;;
18136;SDS011;9194;42.632;23.298;2023-11-21T19:15:20;1.93;;;1.57;;
18136;SDS011;9194;42.632;23.298;2023-11-21T19:20:21;1.47;;;1.17;;
18136;SDS011;9194;42.632;23.298;2023-11-21T19:25:24;6.60;;;2.57;;
18136;SDS011;9194;42.632;23.298;2023-11-21T19:30:25;2.10;;;2.00;;
18136;SDS011;9194;42.632;23.298;2023-11-21T19:35:27;4.43;;;1.80;;
18136;SDS011;9194;42.632;23.298;2023-11-21T19:40:30;1.63;;;1.60;;
18136;SDS011;9194;42.632;23.298;2023-11-21T19:45:33;1.93;;;1.83;;
18136;SDS011;9194;42.632;23.298;2023-11-21T19:50:35;1.07;;;1.07;;
18136;SDS011;9194;42.632;23.298;2023-11-21T19:55:36;3.80;;;1.03;;
18136;SDS011;9194;42.632;23.298;2023-11-21T20:00:39;6.07;;;2.07;;
18136;SDS011;9194;42.632;23.298;2023-11-21T20:05:41;2.00;;;1.37;;
18136;SDS011;9194;42.632;23.298;2023-11-21T20:10:45;3.83;;;2.07;;
18136;SDS011;9194;42.632;23.298;2023-11-21T20:15:49;3.30;;;2.03;;
18136;SDS011;9194;42.632;23.298;2023-11-21T20:20:50;17.87;;;2.93;;
18136;SDS011;9194;42.632;23.298;2023-11-21T20:25:51;1.67;;;1.57;;
18136;SDS011;9194;42.632;23.298;2023-11-21T20:30:58;11.97;;;2.97;;
18136;SDS011;9194;42.632;23.298;2023-11-21T20:35:59;1.97;;;1.87;;
18136;SDS011;9194;42.632;23.298;2023-11-21T20:41:01;1.90;;;1.57;;
18136;SDS011;9194;42.632;23.298;2023-11-21T20:46:02;3.97;;;1.70;;
18136;SDS011;9194;42.632;23.298;2023-11-21T20:51:11;1.37;;;1.37;;
18136;SDS011;9194;42.632;23.298;2023-11-21T20:56:13;1.73;;;1.63;;
18136;SDS011;9194;42.632;23.298;2023-11-21T21:01:14;1.27;;;1.27;;
18136;SDS011;9194;42.632;23.298;2023-11-21T21:06:36;1.73;;;1.63;;
18136;SDS011;9194;42.632;23.298;2023-11-21T21:11:38;1.70;;;1.60;;
18136;SDS011;9194;42.632;23.298;2023-11-21T21:16:40;1.40;;;1.40;;
18136;SDS011;9194;42.632;23.298;2023-11-21T21:21:42;1.40;;;1.30;;
18136;SDS011;9194;42.632;23.298;2023-11-21T21:26:44;0.60;;;0.60;;
18136;SDS011;9194;42.632;23.298;2023-11-21T21:31:46;1.03;;;1.03;;
18136;SDS011;9194;42.632;23.298;2023-11-21T21:36:47;2.37;;;1.97;;
18136;SDS011;9194;42.632;23.298;2023-11-21T21:41:48;1.40;;;1.40;;
18136;SDS011;9194;42.632;23.298;2023-11-21T21:46:51;1.57;;;1.47;;
18136;SDS011;9194;42.632;23.298;2023-11-21T21:51:53;1.03;;;1.03;;
18136;SDS011;9194;42.632;23.298;2023-11-21T21:56:54;1.40;;;1.30;;
18136;SDS011;9194;42.632;23.298;2023-11-21T22:01:55;1.23;;;1.23;;
18136;SDS011;9194;42.632;23.298;2023-11-21T22:06:57;1.33;;;1.23;;
18136;SDS011;9194;42.632;23.298;2023-11-21T22:11:58;1.53;;;1.43;;
18136;SDS011;9194;42.632;23.298;2023-11-21T22:16:59;0.70;;;0.70;;
18136;SDS011;9194;42.632;23.298;2023-11-21T22:22:01;0.87;;;0.87;;
18136;SDS011;9194;42.632;23.298;2023-11-21T22:27:02;0.70;;;0.70;;
18136;SDS011;9194;42.632;23.298;2023-11-21T22:32:04;2.47;;;1.20;;
18136;SDS011;9194;42.632;23.298;2023-11-21T22:37:05;2.87;;;1.47;;
18136;SDS011;9194;42.632;23.298;2023-11-21T22:42:07;1.33;;;0.90;;
18136;SDS011;9194;42.632;23.298;2023-11-21T22:47:08;0.93;;;0.90;;
18136;SDS011;9194;42.632;23.298;2023-11-21T22:52:10;2.83;;;2.63;;
18136;SDS011;9194;42.632;23.298;2023-11-21T22:57:12;2.10;;;2.00;;
18136;SDS011;9194;42.632;23.298;2023-11-21T23:02:13;3.23;;;1.63;;
18136;SDS011;9194;42.632;23.298;2023-11-21T23:07:14;1.87;;;1.77;;
18136;SDS011;9194;42.632;23.298;2023-11-21T23:12:17;2.73;;;1.70;;
18136;SDS011;9194;42.632;23.298;2023-11-21T23:17:18;0.77;;;0.77;;
18136;SDS011;9194;42.632;23.298;2023-11-21T23:22:19;1.20;;;1.20;;
18136;SDS011;9194;42.632;23.298;2023-11-21T23:27:21;1.27;;;1.27;;
18136;SDS011;9194;42.632;23.298;2023-11-21T23:32:22;2.77;;;1.57;;
18136;SDS011;9194;42.632;23.298;2023-11-21T23:37:23;0.77;;;0.77;;
18136;SDS011;9194;42.632;23.298;2023-11-21T23:42:25;1.30;;;1.27;;
18136;SDS011;9194;42.632;23.298;2023-11-21T23:47:27;7.07;;;1.33;;
18136;SDS011;9194;42.632;23.298;2023-11-21T23:52:28;1.03;;;1.00;;
18136;SDS011;9194;42.632;23.298;2023-11-21T23:57:29;0.83;;;0.83;;
